createdAt,value
2022-10-08T00:00:18.612Z,12.70
2022-10-08T00:02:55.935Z,12.90
2022-10-08T00:05:24.700Z,13.00
2022-10-08T00:07:53.411Z,12.70
2022-10-08T00:10:22.473Z,12.70
2022-10-08T00:12:51.185Z,12.70
2022-10-08T00:15:19.892Z,12.70
2022-10-08T00:17:48.610Z,12.60
2022-10-08T00:20:19.106Z,12.60
2022-10-08T00:22:48.079Z,12.60
2022-10-08T00:25:17.473Z,12.60
2022-10-08T00:27:46.556Z,12.60
2022-10-08T00:30:15.693Z,12.60
2022-10-08T00:32:44.813Z,12.60
2022-10-08T00:35:14.050Z,12.40
2022-10-08T00:37:44.288Z,12.50
2022-10-08T00:40:13.105Z,12.10
2022-10-08T00:42:41.862Z,12.50
2022-10-08T00:45:13.902Z,12.50
2022-10-08T00:47:46.879Z,12.50
2022-10-08T00:50:20.106Z,12.50
2022-10-08T00:52:53.782Z,12.50
2022-10-08T00:55:27.685Z,12.60
2022-10-08T00:57:58.576Z,12.60
2022-10-08T01:00:28.031Z,12.50
2022-10-08T01:02:57.118Z,12.50
2022-10-08T01:05:35.761Z,12.40
2022-10-08T01:08:17.972Z,12.40
2022-10-08T01:10:55.497Z,12.40
2022-10-08T01:13:34.219Z,12.50
2022-10-08T01:16:10.864Z,12.50
2022-10-08T01:18:48.334Z,12.50
2022-10-08T01:21:27.920Z,12.50
2022-10-08T01:24:17.624Z,12.50
2022-10-08T01:27:03.279Z,12.60
2022-10-08T01:29:38.846Z,12.60
2022-10-08T01:32:16.033Z,12.70
2022-10-08T01:34:48.692Z,12.70
2022-10-08T01:37:27.483Z,12.80
2022-10-08T01:39:58.288Z,12.80
2022-10-08T01:42:29.740Z,12.80
2022-10-08T01:45:04.626Z,12.70
2022-10-08T01:47:34.684Z,12.70
2022-10-08T01:50:13.527Z,12.80
2022-10-08T01:52:46.506Z,12.80
2022-10-08T01:55:20.698Z,12.80
2022-10-08T01:57:50.341Z,12.80
2022-10-08T02:00:20.819Z,12.80
2022-10-08T02:02:49.452Z,12.80
2022-10-08T02:05:19.006Z,12.80
2022-10-08T02:07:50.388Z,12.80
2022-10-08T02:10:20.663Z,12.80
2022-10-08T02:12:50.073Z,12.80
2022-10-08T02:15:23.327Z,12.80
2022-10-08T02:17:59.038Z,12.80
2022-10-08T02:20:35.565Z,12.90
2022-10-08T02:23:10.225Z,12.90
2022-10-08T02:25:42.256Z,12.90
2022-10-08T02:28:19.442Z,12.90
2022-10-08T02:30:56.819Z,12.90
2022-10-08T02:33:28.844Z,13.00
2022-10-08T02:36:00.647Z,13.00
2022-10-08T02:38:34.624Z,12.90
2022-10-08T02:41:06.958Z,12.90
2022-10-08T02:43:41.566Z,12.90
2022-10-08T02:46:17.535Z,12.90
2022-10-08T02:48:51.391Z,12.80
2022-10-08T02:51:21.497Z,12.80
2022-10-08T02:53:50.679Z,12.80
2022-10-08T02:56:25.983Z,12.70
2022-10-08T02:58:55.556Z,12.70
2022-10-08T03:01:35.803Z,12.70
2022-10-08T03:04:07.368Z,12.60
2022-10-08T03:06:37.741Z,12.50
2022-10-08T03:09:08.785Z,12.50
2022-10-08T03:11:37.653Z,12.40
2022-10-08T03:14:10.698Z,12.40
2022-10-08T03:16:43.836Z,12.40
2022-10-08T03:19:15.286Z,12.40
2022-10-08T03:21:45.566Z,12.30
2022-10-08T03:24:15.508Z,12.30
2022-10-08T03:26:47.823Z,12.30
2022-10-08T03:29:16.662Z,11.70
2022-10-08T03:31:49.464Z,12.30
2022-10-08T03:34:18.422Z,12.40
2022-10-08T03:36:47.068Z,12.20
2022-10-08T03:39:16.002Z,12.20
2022-10-08T03:41:44.810Z,12.20
2022-10-08T03:44:13.617Z,12.20
2022-10-08T03:46:43.082Z,12.20
2022-10-08T03:49:14.699Z,12.20
2022-10-08T03:51:44.064Z,12.20
2022-10-08T03:54:12.845Z,12.20
2022-10-08T03:56:42.181Z,12.20
2022-10-08T03:59:11.164Z,12.20
2022-10-08T04:01:43.943Z,12.20
2022-10-08T04:04:27.152Z,12.20
2022-10-08T04:06:57.032Z,13.00
2022-10-08T04:09:26.086Z,12.20
2022-10-08T04:11:55.835Z,12.20
2022-10-08T04:14:25.292Z,12.30
2022-10-08T04:16:57.546Z,12.20
2022-10-08T04:19:28.832Z,12.30
2022-10-08T04:21:57.820Z,12.90
2022-10-08T04:24:28.587Z,12.20
2022-10-08T04:26:58.586Z,12.20
2022-10-08T04:29:27.680Z,12.20
2022-10-08T04:31:56.778Z,12.20
2022-10-08T04:34:27.182Z,12.20
2022-10-08T04:36:56.670Z,12.20
2022-10-08T04:39:25.482Z,12.20
2022-10-08T04:41:54.656Z,12.20
2022-10-08T04:44:25.311Z,12.20
2022-10-08T04:46:54.402Z,11.90
2022-10-08T04:49:23.312Z,11.90
2022-10-08T04:51:54.328Z,12.30
2022-10-08T04:54:23.636Z,12.30
2022-10-08T04:56:53.042Z,12.30
2022-10-08T04:59:22.277Z,12.20
2022-10-08T05:01:53.555Z,12.20
2022-10-08T05:04:22.939Z,12.20
2022-10-08T05:06:59.748Z,12.20
2022-10-08T05:09:29.336Z,12.20
2022-10-08T05:12:04.707Z,12.00
2022-10-08T05:14:33.594Z,12.20
2022-10-08T05:17:03.385Z,12.20
2022-10-08T05:19:32.581Z,12.30
2022-10-08T05:22:03.511Z,12.30
2022-10-08T05:24:32.873Z,12.20
2022-10-08T05:27:02.031Z,12.20
2022-10-08T05:29:32.745Z,12.20
2022-10-08T05:32:02.035Z,12.20
2022-10-08T05:34:31.573Z,12.20
2022-10-08T05:37:01.882Z,12.20
2022-10-08T05:39:41.966Z,12.30
2022-10-08T05:42:11.024Z,12.30
2022-10-08T05:44:45.624Z,12.20
2022-10-08T05:47:19.189Z,11.80
2022-10-08T05:49:49.379Z,12.30
2022-10-08T05:52:18.910Z,12.20
2022-10-08T05:54:49.885Z,12.00
2022-10-08T05:57:18.948Z,12.20
2022-10-08T05:59:47.943Z,12.30
2022-10-08T06:02:17.119Z,12.30
2022-10-08T06:04:48.159Z,12.30
2022-10-08T06:07:18.730Z,12.20
2022-10-08T06:09:49.721Z,12.20
2022-10-08T06:12:19.935Z,12.20
2022-10-08T06:14:49.192Z,12.20
2022-10-08T06:17:19.931Z,12.30
2022-10-08T06:19:54.443Z,12.20
2022-10-08T06:22:24.990Z,12.20
2022-10-08T06:24:55.326Z,12.20
2022-10-08T06:27:24.313Z,12.20
2022-10-08T06:29:53.646Z,12.20
2022-10-08T06:32:22.873Z,12.20
2022-10-08T06:34:53.061Z,12.20
2022-10-08T06:37:21.999Z,12.40
2022-10-08T06:39:51.039Z,12.50
2022-10-08T06:42:22.048Z,12.60
2022-10-08T06:44:53.399Z,12.30
2022-10-08T06:47:22.486Z,12.70
2022-10-08T06:49:51.735Z,12.70
2022-10-08T06:52:20.616Z,12.70
2022-10-08T06:54:50.883Z,12.70
2022-10-08T06:57:21.177Z,12.70
2022-10-08T06:59:50.316Z,12.70
2022-10-08T07:02:19.464Z,12.70
2022-10-08T07:04:48.637Z,12.70
2022-10-08T07:07:18.221Z,12.60
2022-10-08T07:09:47.857Z,12.60
2022-10-08T07:12:16.646Z,12.60
2022-10-08T07:14:49.724Z,12.70
2022-10-08T07:17:18.680Z,12.90
2022-10-08T07:19:47.836Z,12.80
2022-10-08T07:22:16.942Z,12.80
2022-10-08T07:24:45.928Z,12.80
2022-10-08T07:27:15.958Z,12.80
2022-10-08T07:29:46.075Z,12.90
2022-10-08T07:32:16.791Z,13.00
2022-10-08T07:34:45.746Z,13.10
2022-10-08T07:37:14.654Z,13.20
2022-10-08T07:39:43.723Z,13.30
2022-10-08T07:42:13.769Z,13.30
2022-10-08T07:44:42.848Z,13.40
2022-10-08T07:47:12.380Z,13.40
2022-10-08T07:49:43.169Z,13.40
2022-10-08T07:52:14.190Z,13.50
2022-10-08T07:54:46.534Z,13.60
2022-10-08T07:57:19.116Z,13.60
2022-10-08T07:59:48.326Z,13.50
2022-10-08T08:02:18.890Z,13.40
2022-10-08T08:04:51.982Z,13.60
2022-10-08T08:07:25.107Z,13.70
2022-10-08T08:09:54.709Z,13.70
2022-10-08T08:12:24.243Z,13.40
2022-10-08T08:14:53.452Z,13.70
2022-10-08T08:17:24.892Z,13.70
2022-10-08T08:19:57.845Z,13.80
2022-10-08T08:22:26.955Z,13.90
2022-10-08T08:24:55.920Z,14.10
2022-10-08T08:27:28.730Z,14.30
2022-10-08T08:29:57.809Z,14.30
2022-10-08T08:32:28.661Z,14.30
2022-10-08T08:35:00.266Z,14.70
2022-10-08T08:37:32.381Z,15.00
2022-10-08T08:40:01.998Z,15.40
2022-10-08T08:42:53.108Z,15.50
2022-10-08T08:45:45.955Z,15.50
2022-10-08T08:48:23.607Z,15.40
2022-10-08T08:50:58.740Z,15.90
2022-10-08T08:53:29.301Z,16.90
2022-10-08T08:56:01.735Z,17.50
2022-10-08T08:58:38.850Z,18.20
2022-10-08T09:01:28.008Z,18.60
2022-10-08T09:04:00.834Z,18.40
2022-10-08T09:06:43.376Z,17.90
2022-10-08T09:09:26.481Z,17.20
2022-10-08T09:11:56.918Z,16.80
2022-10-08T09:14:40.156Z,16.60
2022-10-08T09:17:18.095Z,16.40
2022-10-08T09:19:48.008Z,16.30
2022-10-08T09:22:26.681Z,15.90
2022-10-08T09:25:00.338Z,15.50
2022-10-08T09:27:46.978Z,15.70
2022-10-08T09:30:35.340Z,15.30
2022-10-08T09:33:18.858Z,15.70
2022-10-08T09:35:58.092Z,16.00
2022-10-08T09:38:45.456Z,15.90
2022-10-08T09:41:27.057Z,16.40
2022-10-08T09:44:15.667Z,15.90
2022-10-08T09:46:45.427Z,15.90
2022-10-08T09:49:43.323Z,16.00
2022-10-08T09:52:28.517Z,16.50
2022-10-08T09:55:17.968Z,16.50
2022-10-08T09:57:51.871Z,16.40
2022-10-08T10:00:42.471Z,16.20
2022-10-08T10:03:24.622Z,16.20
2022-10-08T10:05:57.639Z,15.90
2022-10-08T10:09:00.101Z,16.00
2022-10-08T10:11:49.559Z,16.00
2022-10-08T10:14:25.936Z,15.80
2022-10-08T10:17:03.507Z,15.70
2022-10-08T10:19:42.538Z,15.60
2022-10-08T10:22:19.427Z,15.40
2022-10-08T10:24:55.943Z,15.30
2022-10-08T10:27:36.309Z,15.30
2022-10-08T10:30:22.648Z,16.30
2022-10-08T10:32:55.596Z,17.10
2022-10-08T10:35:30.632Z,17.80
2022-10-08T10:38:10.690Z,18.00
2022-10-08T10:40:44.628Z,17.70
2022-10-08T10:43:30.453Z,17.40
2022-10-08T10:46:15.364Z,17.10
2022-10-08T10:48:44.776Z,16.90
2022-10-08T10:51:29.149Z,16.70
2022-10-08T10:54:10.705Z,16.80
2022-10-08T10:56:42.785Z,16.90
2022-10-08T10:59:31.501Z,16.90
2022-10-08T11:02:09.157Z,17.30
2022-10-08T11:04:47.597Z,17.70
2022-10-08T11:07:35.481Z,18.10
2022-10-08T11:10:13.639Z,18.40
2022-10-08T11:12:53.680Z,18.60
2022-10-08T11:15:34.237Z,18.90
2022-10-08T11:18:21.875Z,19.00
2022-10-08T11:23:50.554Z,19.40
2022-10-08T11:26:28.082Z,19.80
2022-10-08T11:29:09.818Z,20.10
2022-10-08T11:31:45.510Z,20.20
2022-10-08T11:34:29.108Z,20.20
2022-10-08T11:37:08.305Z,20.40
2022-10-08T11:39:47.685Z,20.20
2022-10-08T11:42:23.398Z,19.90
2022-10-08T11:44:53.368Z,19.40
2022-10-08T11:47:51.336Z,19.00
2022-10-08T11:50:42.411Z,18.90
2022-10-08T11:53:34.854Z,18.80
2022-10-08T11:56:04.540Z,18.80
2022-10-08T11:58:36.069Z,19.00
2022-10-08T12:01:08.599Z,19.00
2022-10-08T12:03:43.186Z,19.20
2022-10-08T12:06:21.023Z,19.50
2022-10-08T12:08:53.816Z,19.40
2022-10-08T12:11:50.221Z,19.70
2022-10-08T12:14:33.259Z,20.00
2022-10-08T12:17:15.918Z,20.20
2022-10-08T12:20:05.016Z,20.00
2022-10-08T12:22:46.651Z,20.20
2022-10-08T12:25:38.137Z,20.10
2022-10-08T12:28:46.419Z,20.30
2022-10-08T12:31:36.258Z,20.30
2022-10-08T12:34:16.059Z,20.60
2022-10-08T12:37:16.611Z,20.40
2022-10-08T12:39:50.294Z,20.20
2022-10-08T12:42:24.630Z,20.00
2022-10-08T12:45:05.700Z,20.00
2022-10-08T12:47:44.134Z,20.00
2022-10-08T12:50:40.823Z,19.60
2022-10-08T12:53:16.007Z,19.30
2022-10-08T12:55:49.894Z,19.20
2022-10-08T12:58:25.285Z,19.20
2022-10-08T13:00:58.551Z,19.10
2022-10-08T13:03:28.321Z,18.80
2022-10-08T13:05:58.439Z,18.70
2022-10-08T13:08:37.528Z,18.60
2022-10-08T13:11:10.598Z,18.30
2022-10-08T13:13:50.734Z,18.00
2022-10-08T13:16:21.917Z,17.70
2022-10-08T13:18:53.898Z,17.50
2022-10-08T13:21:39.402Z,17.30
2022-10-08T13:24:52.813Z,17.20
2022-10-08T13:27:28.427Z,17.00
2022-10-08T13:29:58.101Z,16.90
2022-10-08T13:32:30.214Z,16.80
2022-10-08T13:35:00.860Z,16.70
2022-10-08T13:37:35.050Z,16.60
2022-10-08T13:40:06.899Z,16.50
2022-10-08T13:42:42.218Z,16.50
2022-10-08T13:45:17.158Z,16.50
2022-10-08T13:47:46.615Z,16.60
2022-10-08T13:50:17.169Z,16.70
2022-10-08T13:52:51.758Z,16.80
2022-10-08T13:55:26.957Z,16.60
2022-10-08T13:58:00.400Z,16.90
2022-10-08T14:00:30.233Z,16.70
2022-10-08T14:02:59.826Z,16.80
2022-10-08T14:05:30.481Z,16.80
2022-10-08T14:08:03.310Z,16.80
2022-10-08T14:10:33.726Z,16.60
2022-10-08T14:13:05.729Z,17.20
2022-10-08T14:15:35.289Z,16.90
2022-10-08T14:18:06.477Z,17.00
2022-10-08T14:20:36.474Z,17.00
2022-10-08T14:23:07.494Z,17.00
2022-10-08T14:25:40.423Z,17.00
2022-10-08T14:28:13.726Z,17.00
2022-10-08T14:30:43.572Z,17.00
2022-10-08T14:33:12.851Z,17.00
2022-10-08T14:35:42.067Z,16.90
2022-10-08T14:38:11.361Z,16.90
2022-10-08T14:40:43.605Z,16.80
2022-10-08T14:43:27.448Z,16.40
2022-10-08T14:45:57.035Z,16.60
2022-10-08T14:48:26.566Z,16.50
2022-10-08T14:51:01.484Z,16.50
2022-10-08T14:53:34.225Z,16.60
2022-10-08T14:56:12.970Z,16.60
2022-10-08T14:58:47.053Z,16.50
2022-10-08T15:01:15.973Z,16.50
2022-10-08T15:03:46.460Z,16.50
2022-10-08T15:06:16.193Z,16.50
2022-10-08T15:08:48.497Z,16.50
2022-10-08T15:11:17.972Z,16.50
2022-10-08T15:13:48.317Z,16.60
2022-10-08T15:16:17.297Z,16.60
2022-10-08T15:18:46.486Z,16.70
2022-10-08T15:21:15.953Z,16.80
2022-10-08T15:23:44.782Z,16.80
2022-10-08T15:26:16.567Z,16.80
2022-10-08T15:28:58.616Z,16.70
2022-10-08T15:31:29.836Z,16.70
2022-10-08T15:34:02.055Z,16.60
2022-10-08T15:36:33.175Z,16.10
2022-10-08T15:39:05.672Z,16.60
2022-10-08T15:41:38.078Z,16.50
2022-10-08T15:44:12.078Z,16.50
2022-10-08T15:46:41.298Z,16.40
2022-10-08T15:49:10.447Z,16.40
2022-10-08T15:51:39.681Z,16.30
2022-10-08T15:54:09.974Z,16.20
2022-10-08T15:56:42.327Z,16.20
2022-10-08T15:59:13.378Z,16.10
2022-10-08T16:01:44.073Z,15.90
2022-10-08T16:04:14.602Z,16.10
2022-10-08T16:06:45.709Z,16.00
2022-10-08T16:09:15.833Z,16.00
2022-10-08T16:11:45.697Z,16.00
2022-10-08T16:14:18.570Z,15.90
2022-10-08T16:16:47.825Z,15.90
2022-10-08T16:19:19.679Z,15.90
2022-10-08T16:21:51.425Z,15.90
2022-10-08T16:24:21.363Z,15.80
2022-10-08T16:26:56.794Z,15.80
2022-10-08T16:29:27.616Z,15.70
2022-10-08T16:31:57.112Z,15.60
2022-10-08T16:34:28.796Z,15.60
2022-10-08T16:37:02.496Z,15.50
2022-10-08T16:39:33.109Z,15.50
2022-10-08T16:42:11.647Z,15.40
2022-10-08T16:44:43.065Z,15.20
2022-10-08T16:47:12.941Z,15.20
2022-10-08T16:49:42.596Z,15.20
2022-10-08T16:52:13.494Z,15.10
2022-10-08T16:54:43.360Z,15.10
2022-10-08T16:57:14.422Z,15.00
2022-10-08T16:59:47.519Z,15.40
2022-10-08T17:02:17.475Z,15.50
2022-10-08T17:04:46.918Z,15.50
2022-10-08T17:07:17.451Z,15.70
2022-10-08T17:09:47.662Z,15.80
2022-10-08T17:12:20.969Z,15.80
2022-10-08T17:14:52.678Z,15.80
2022-10-08T17:17:24.202Z,15.60
2022-10-08T17:19:53.876Z,15.40
2022-10-08T17:22:23.031Z,15.10
2022-10-08T17:24:52.561Z,14.90
2022-10-08T17:27:21.685Z,14.70
2022-10-08T17:29:58.456Z,14.50
2022-10-08T17:32:27.826Z,14.30
2022-10-08T17:34:57.269Z,14.20
2022-10-08T17:37:26.180Z,14.20
2022-10-08T17:39:55.755Z,14.00
2022-10-08T17:42:24.809Z,14.00
2022-10-08T17:44:55.366Z,13.90
2022-10-08T17:47:28.955Z,13.90
2022-10-08T17:49:58.747Z,13.80
2022-10-08T17:52:28.026Z,13.80
2022-10-08T17:54:57.072Z,13.70
2022-10-08T17:57:26.075Z,13.70
2022-10-08T17:59:56.669Z,13.70
2022-10-08T18:02:26.248Z,13.70
2022-10-08T18:04:55.934Z,13.60
2022-10-08T18:07:24.931Z,13.70
2022-10-08T18:09:53.905Z,13.60
2022-10-08T18:12:23.302Z,13.60
2022-10-08T18:14:52.442Z,13.50
2022-10-08T18:17:22.783Z,13.50
2022-10-08T18:19:51.681Z,13.40
2022-10-08T18:22:22.545Z,13.40
2022-10-08T18:24:52.684Z,13.60
2022-10-08T18:27:24.593Z,12.70
2022-10-08T18:29:53.712Z,13.30
2022-10-08T18:32:26.165Z,13.20
2022-10-08T18:34:55.397Z,13.20
2022-10-08T18:37:25.555Z,13.20
2022-10-08T18:39:55.595Z,13.20
2022-10-08T18:42:25.176Z,13.20
2022-10-08T18:44:54.088Z,13.20
2022-10-08T18:47:25.279Z,13.20
2022-10-08T18:49:55.343Z,13.10
2022-10-08T18:52:27.527Z,13.10
2022-10-08T18:54:56.521Z,13.10
2022-10-08T18:57:28.408Z,13.10
2022-10-08T19:00:00.270Z,13.10
2022-10-08T19:02:31.481Z,13.00
2022-10-08T19:05:01.294Z,13.00
2022-10-08T19:07:33.386Z,12.90
2022-10-08T19:10:05.141Z,12.90
2022-10-08T19:12:34.414Z,12.80
2022-10-08T19:15:05.416Z,12.80
2022-10-08T19:17:37.728Z,12.70
2022-10-08T19:20:07.610Z,12.70
2022-10-08T19:22:38.535Z,12.70
2022-10-08T19:25:08.671Z,12.70
2022-10-08T19:27:39.694Z,12.70
2022-10-08T19:30:26.563Z,13.20
2022-10-08T19:33:02.521Z,12.60
2022-10-08T19:35:32.856Z,12.60
2022-10-08T19:38:02.501Z,12.60
2022-10-08T19:40:34.728Z,12.60
2022-10-08T19:43:11.688Z,12.60
2022-10-08T19:45:44.187Z,12.50
2022-10-08T19:48:15.298Z,12.50
2022-10-08T19:50:49.322Z,12.50
2022-10-08T19:53:19.135Z,12.50
2022-10-08T19:55:55.017Z,12.40
2022-10-08T19:58:26.663Z,12.40
2022-10-08T20:01:01.901Z,12.40
2022-10-08T20:03:37.563Z,12.30
2022-10-08T20:06:08.779Z,12.40
2022-10-08T20:08:38.355Z,12.20
2022-10-08T20:11:10.384Z,12.20
2022-10-08T20:13:41.021Z,12.10
2022-10-08T20:16:12.194Z,12.10
2022-10-08T20:18:43.963Z,12.10
2022-10-08T20:21:14.531Z,12.00
2022-10-08T20:23:44.036Z,12.00
2022-10-08T20:26:16.626Z,12.00
2022-10-08T20:28:47.588Z,12.00
2022-10-08T20:31:18.528Z,12.00
2022-10-08T20:33:49.238Z,11.90
2022-10-08T20:36:19.375Z,11.90
2022-10-08T20:38:48.814Z,11.90
2022-10-08T20:41:17.801Z,11.90
2022-10-08T20:43:47.237Z,11.90
2022-10-08T20:46:18.713Z,11.90
2022-10-08T20:48:50.434Z,11.80
2022-10-08T20:51:27.139Z,11.70
2022-10-08T20:53:57.825Z,11.40
2022-10-08T20:56:29.366Z,11.70
2022-10-08T20:58:58.998Z,11.60
2022-10-08T21:01:29.775Z,11.60
2022-10-08T21:04:01.678Z,11.20
2022-10-08T21:06:32.069Z,11.60
2022-10-08T21:09:02.155Z,11.50
2022-10-08T21:11:32.295Z,11.50
2022-10-08T21:14:03.931Z,11.50
2022-10-08T21:16:35.092Z,11.40
2022-10-08T21:19:09.924Z,11.40
2022-10-08T21:21:39.573Z,11.30
2022-10-08T21:24:09.932Z,11.30
2022-10-08T21:26:40.563Z,11.30
2022-10-08T21:29:11.554Z,11.20
2022-10-08T21:31:42.129Z,11.20
2022-10-08T21:34:13.780Z,11.20
2022-10-08T21:36:44.901Z,11.10
2022-10-08T21:39:17.896Z,11.10
2022-10-08T21:41:55.295Z,11.00
2022-10-08T21:44:39.322Z,10.10
2022-10-08T21:47:08.425Z,10.90
2022-10-08T21:49:39.260Z,10.80
2022-10-08T21:52:08.796Z,10.70
2022-10-08T21:54:38.048Z,10.30
2022-10-08T21:57:07.766Z,10.70
2022-10-08T21:59:36.897Z,10.90
2022-10-08T22:02:05.998Z,10.80
2022-10-08T22:04:34.866Z,10.10
2022-10-08T22:07:08.227Z,10.60
2022-10-08T22:09:39.950Z,10.60
2022-10-08T22:12:09.206Z,10.60
2022-10-08T22:14:38.282Z,10.80
2022-10-08T22:17:10.285Z,9.70
2022-10-08T22:19:39.291Z,10.60
2022-10-08T22:22:12.701Z,10.50
2022-10-08T22:24:43.503Z,10.40
2022-10-08T22:27:12.684Z,10.40
2022-10-08T22:29:41.829Z,10.30
2022-10-08T22:32:15.019Z,10.30
2022-10-08T22:34:46.441Z,10.20
2022-10-08T22:37:17.859Z,10.20
2022-10-08T22:39:47.016Z,10.10
2022-10-08T22:42:31.353Z,10.10
2022-10-08T22:45:00.341Z,10.20
2022-10-08T22:47:29.818Z,10.20
2022-10-08T22:49:59.290Z,10.10
2022-10-08T22:52:30.222Z,10.60
2022-10-08T22:54:59.355Z,10.00
2022-10-08T22:57:29.088Z,10.20
2022-10-08T23:00:09.984Z,10.00
2022-10-08T23:02:39.197Z,9.90
2022-10-08T23:05:25.196Z,9.90
